createdAt,value
2023-03-17T00:01:20.836Z,10.23
2023-03-17T00:03:49.891Z,6.80
2023-03-17T00:06:20.450Z,9.48
2023-03-17T00:08:48.349Z,9.20
2023-03-17T00:11:18.024Z,10.52
2023-03-17T00:13:47.091Z,8.38
2023-03-17T00:16:20.112Z,11.90
2023-03-17T00:18:48.402Z,11.18
2023-03-17T00:21:22.940Z,8.10
2023-03-17T00:23:51.882Z,10.60
2023-03-17T00:26:20.236Z,9.32
2023-03-17T00:28:49.107Z,10.75
2023-03-17T00:31:21.005Z,8.30
2023-03-17T00:33:52.136Z,8.90
2023-03-17T00:36:23.960Z,8.15
2023-03-17T00:38:52.562Z,8.77
2023-03-17T00:41:20.897Z,7.63
2023-03-17T00:43:49.301Z,9.98
2023-03-17T00:46:25.255Z,8.68
2023-03-17T00:48:54.255Z,9.02
2023-03-17T00:51:22.236Z,10.95
2023-03-17T00:53:50.136Z,8.35
2023-03-17T00:56:20.774Z,8.18
2023-03-17T00:58:49.749Z,9.35
2023-03-17T01:01:19.848Z,9.25
2023-03-17T01:03:48.450Z,10.10
2023-03-17T01:06:17.610Z,8.50
2023-03-17T01:08:46.611Z,9.45
2023-03-17T01:11:18.653Z,7.68
2023-03-17T01:13:48.646Z,9.52
2023-03-17T01:16:18.025Z,7.75
2023-03-17T01:18:46.051Z,7.53
2023-03-17T01:21:14.031Z,8.75
2023-03-17T01:23:42.104Z,9.75
2023-03-17T01:26:10.170Z,7.55
2023-03-17T01:28:39.162Z,9.73
2023-03-17T01:31:07.047Z,7.68
2023-03-17T01:33:36.453Z,9.48
2023-03-17T01:36:04.376Z,7.38
2023-03-17T01:38:32.503Z,8.48
2023-03-17T01:41:02.242Z,8.00
2023-03-17T01:43:31.560Z,8.63
2023-03-17T01:46:26.104Z,7.97
2023-03-17T01:49:04.185Z,9.98
2023-03-17T01:51:35.804Z,8.07
2023-03-17T01:54:09.230Z,6.65
2023-03-17T01:56:39.560Z,8.18
2023-03-17T01:59:10.994Z,8.35
2023-03-17T02:01:42.631Z,9.65
2023-03-17T02:04:12.935Z,9.35
2023-03-17T02:06:55.266Z,10.98
2023-03-17T02:09:25.469Z,10.25
2023-03-17T02:11:53.685Z,8.52
2023-03-17T02:14:22.466Z,8.02
2023-03-17T02:16:50.491Z,7.95
2023-03-17T02:19:19.874Z,7.28
2023-03-17T02:21:51.920Z,11.32
2023-03-17T02:24:28.825Z,10.82
2023-03-17T02:27:03.732Z,8.35
2023-03-17T02:29:36.053Z,7.85
2023-03-17T02:32:05.437Z,12.90
2023-03-17T02:34:33.681Z,8.52
2023-03-17T02:37:03.115Z,11.15
2023-03-17T02:39:32.211Z,9.98
2023-03-17T02:42:00.470Z,8.10
2023-03-17T02:44:28.391Z,7.93
2023-03-17T02:46:56.570Z,8.80
2023-03-17T02:49:27.096Z,8.70
2023-03-17T02:51:55.158Z,10.77
2023-03-17T02:54:24.509Z,11.07
2023-03-17T02:56:52.742Z,7.82
2023-03-17T02:59:20.734Z,9.70
2023-03-17T03:01:50.546Z,9.90
2023-03-17T03:04:19.108Z,7.97
2023-03-17T03:06:47.623Z,10.18
2023-03-17T03:09:17.746Z,10.75
2023-03-17T03:11:47.472Z,8.27
2023-03-17T03:14:15.393Z,11.30
2023-03-17T03:16:43.424Z,9.38
2023-03-17T03:19:11.533Z,11.18
2023-03-17T03:21:39.519Z,9.02
2023-03-17T03:24:08.532Z,11.93
2023-03-17T03:26:36.995Z,8.20
2023-03-17T03:29:06.851Z,9.15
2023-03-17T03:31:34.826Z,9.98
2023-03-17T03:34:02.788Z,12.48
2023-03-17T03:36:30.657Z,9.98
2023-03-17T03:38:59.729Z,8.48
2023-03-17T03:41:27.731Z,9.23
2023-03-17T03:43:55.580Z,10.40
2023-03-17T03:46:26.559Z,7.82
2023-03-17T03:48:54.721Z,9.07
2023-03-17T03:51:22.643Z,7.40
2023-03-17T03:53:50.595Z,8.38
2023-03-17T03:56:18.483Z,7.13
2023-03-17T03:58:46.592Z,7.93
2023-03-17T04:01:14.574Z,7.70
2023-03-17T04:03:43.870Z,8.13
2023-03-17T04:06:11.782Z,9.48
2023-03-17T04:08:39.681Z,8.98
2023-03-17T04:11:08.675Z,8.43
2023-03-17T04:13:36.936Z,11.15
2023-03-17T04:16:04.895Z,8.38
2023-03-17T04:18:32.908Z,10.73
2023-03-17T04:21:02.482Z,10.23
2023-03-17T04:23:31.445Z,10.75
2023-03-17T04:25:59.402Z,10.65
2023-03-17T04:28:27.375Z,7.50
2023-03-17T04:30:55.275Z,8.10
2023-03-17T04:33:23.160Z,5.97
2023-03-17T04:35:51.309Z,6.68
2023-03-17T04:38:20.618Z,7.10
2023-03-17T04:40:48.549Z,7.53
2023-03-17T04:43:16.770Z,7.10
2023-03-17T04:45:44.679Z,8.35
2023-03-17T04:48:12.637Z,6.38
2023-03-17T04:50:40.517Z,9.63
2023-03-17T04:53:09.024Z,6.38
2023-03-17T04:55:38.273Z,7.07
2023-03-17T04:58:06.161Z,7.60
2023-03-17T05:00:38.624Z,8.40
2023-03-17T05:03:19.984Z,7.22
2023-03-17T05:05:53.868Z,7.18
2023-03-17T05:08:21.937Z,8.15
2023-03-17T05:10:54.913Z,7.00
2023-03-17T05:13:23.808Z,7.43
2023-03-17T05:15:53.432Z,6.25
2023-03-17T05:18:23.212Z,6.43
2023-03-17T05:20:51.292Z,8.50
2023-03-17T05:23:19.327Z,8.25
2023-03-17T05:25:48.245Z,9.25
2023-03-17T05:28:18.216Z,6.80
2023-03-17T05:30:46.361Z,8.73
2023-03-17T05:33:14.532Z,8.98
2023-03-17T05:35:42.488Z,7.15
2023-03-17T05:38:12.875Z,6.80
2023-03-17T05:40:41.062Z,7.00
2023-03-17T05:43:09.224Z,7.47
2023-03-17T05:45:39.140Z,8.27
2023-03-17T05:48:07.483Z,8.80
2023-03-17T05:50:35.925Z,7.97
2023-03-17T05:53:03.790Z,7.75
2023-03-17T05:55:31.699Z,8.30
2023-03-17T05:58:00.867Z,7.20
2023-03-17T06:00:29.309Z,5.60
2023-03-17T06:02:58.809Z,7.38
2023-03-17T06:05:27.142Z,6.90
2023-03-17T06:07:56.582Z,6.40
2023-03-17T06:10:25.434Z,8.63
2023-03-17T06:12:53.406Z,5.70
2023-03-17T06:15:21.907Z,9.05
2023-03-17T06:17:49.788Z,5.95
2023-03-17T06:20:19.908Z,5.97
2023-03-17T06:23:02.842Z,7.15
2023-03-17T06:25:32.571Z,5.35
2023-03-17T06:28:02.335Z,7.72
2023-03-17T06:30:31.290Z,5.68
2023-03-17T06:33:00.169Z,6.90
2023-03-17T06:35:30.432Z,6.30
2023-03-17T06:37:58.946Z,8.77
2023-03-17T06:40:26.852Z,6.20
2023-03-17T06:42:54.774Z,7.50
2023-03-17T06:45:22.731Z,5.43
2023-03-17T06:47:50.632Z,6.40
2023-03-17T06:50:18.794Z,6.82
2023-03-17T06:52:48.065Z,6.80
2023-03-17T06:55:16.131Z,5.93
2023-03-17T06:57:44.048Z,5.13
2023-03-17T07:00:14.098Z,9.60
2023-03-17T07:02:43.086Z,7.43
2023-03-17T07:05:12.574Z,8.88
2023-03-17T07:07:40.943Z,5.15
2023-03-17T07:10:13.715Z,5.65
2023-03-17T07:12:41.645Z,6.57
2023-03-17T07:15:11.047Z,6.55
2023-03-17T07:17:39.352Z,7.10
2023-03-17T07:20:07.883Z,8.50
2023-03-17T07:22:36.314Z,5.35
2023-03-17T07:25:04.873Z,7.53
2023-03-17T07:27:34.164Z,4.55
2023-03-17T07:30:04.342Z,5.32
2023-03-17T07:32:32.484Z,4.75
2023-03-17T07:35:00.470Z,7.50
2023-03-17T07:37:28.381Z,6.13
2023-03-17T07:39:56.873Z,4.00
2023-03-17T07:42:24.896Z,5.82
2023-03-17T07:44:54.120Z,10.60
2023-03-17T07:47:22.047Z,3.78
2023-03-17T07:49:50.141Z,5.13
2023-03-17T07:52:18.074Z,6.70
2023-03-17T07:54:46.238Z,9.52
2023-03-17T07:57:16.578Z,5.95
2023-03-17T07:59:44.513Z,8.13
2023-03-17T08:02:16.752Z,5.20
2023-03-17T08:04:45.358Z,3.05
2023-03-17T08:07:14.619Z,3.05
2023-03-17T08:09:42.808Z,4.28
2023-03-17T08:12:11.704Z,2.75
2023-03-17T08:14:39.980Z,4.05
2023-03-17T08:17:08.139Z,4.72
2023-03-17T08:19:37.668Z,6.40
2023-03-17T08:22:06.050Z,6.35
2023-03-17T08:24:34.288Z,2.67
2023-03-17T08:27:02.414Z,8.05
2023-03-17T08:29:30.402Z,5.75
2023-03-17T08:31:58.399Z,2.72
2023-03-17T08:34:26.567Z,2.85
2023-03-17T08:36:56.557Z,3.92
2023-03-17T08:39:24.527Z,4.07
2023-03-17T08:41:52.863Z,3.35
2023-03-17T08:44:21.795Z,6.10
2023-03-17T08:46:50.136Z,3.30
2023-03-17T08:49:18.034Z,3.63
2023-03-17T08:51:46.194Z,2.25
2023-03-17T08:54:15.807Z,2.25
2023-03-17T08:56:43.797Z,3.45
2023-03-17T08:59:12.456Z,4.35
2023-03-17T09:01:41.990Z,4.50
2023-03-17T09:04:11.049Z,3.33
2023-03-17T09:06:44.079Z,3.65
2023-03-17T09:09:18.305Z,4.97
2023-03-17T09:11:46.487Z,2.88
2023-03-17T09:14:15.294Z,2.53
2023-03-17T09:16:43.331Z,3.33
2023-03-17T09:19:11.342Z,2.53
2023-03-17T09:21:39.204Z,2.50
2023-03-17T09:24:07.276Z,2.72
2023-03-17T09:26:36.913Z,2.53
2023-03-17T09:29:05.222Z,2.22
2023-03-17T09:31:33.680Z,3.40
2023-03-17T09:34:01.630Z,2.75
2023-03-17T09:36:29.572Z,3.00
2023-03-17T09:38:57.503Z,2.90
2023-03-17T09:41:46.048Z,1.88
2023-03-17T09:44:25.395Z,2.58
2023-03-17T09:47:04.194Z,2.58
2023-03-17T09:49:40.250Z,2.40
2023-03-17T09:52:15.189Z,2.53
2023-03-17T09:54:43.767Z,2.35
2023-03-17T09:57:16.998Z,1.60
2023-03-17T09:59:47.280Z,1.75
2023-03-17T10:02:22.159Z,2.10
2023-03-17T10:04:50.163Z,1.50
2023-03-17T10:07:22.485Z,1.50
2023-03-17T10:09:59.179Z,2.33
2023-03-17T10:12:41.041Z,1.17
2023-03-17T10:15:18.414Z,1.38
2023-03-17T10:17:47.201Z,2.50
2023-03-17T10:20:19.270Z,1.45
2023-03-17T10:22:49.020Z,1.45
2023-03-17T10:25:19.270Z,1.70
2023-03-17T10:27:53.801Z,3.03
2023-03-17T10:30:24.073Z,4.20
2023-03-17T10:32:52.868Z,4.00
2023-03-17T10:35:22.065Z,3.17
2023-03-17T10:37:50.549Z,3.40
2023-03-17T10:40:23.084Z,2.45
2023-03-17T10:42:55.811Z,1.90
2023-03-17T10:45:29.148Z,1.73
2023-03-17T10:47:58.177Z,2.92
2023-03-17T10:50:30.304Z,2.55
2023-03-17T10:53:00.712Z,0.90
2023-03-17T10:55:30.761Z,1.70
2023-03-17T10:58:05.076Z,2.75
2023-03-17T11:00:36.255Z,1.98
2023-03-17T11:03:12.065Z,1.02
2023-03-17T11:05:40.357Z,1.00
2023-03-17T11:08:12.570Z,1.50
2023-03-17T11:10:41.895Z,3.97
2023-03-17T11:13:16.486Z,1.20
2023-03-17T11:15:48.935Z,1.55
2023-03-17T11:18:22.564Z,1.70
2023-03-17T11:20:55.933Z,2.33
2023-03-17T11:23:47.375Z,8.93
2023-03-17T11:26:31.194Z,1.38
2023-03-17T11:29:15.390Z,1.63
2023-03-17T11:31:50.315Z,1.48
2023-03-17T11:34:27.312Z,1.50
2023-03-17T11:37:02.255Z,1.23
2023-03-17T11:39:40.632Z,1.08
2023-03-17T11:42:17.074Z,1.63
2023-03-17T11:45:16.363Z,1.50
2023-03-17T11:48:21.372Z,1.30
2023-03-17T11:51:09.899Z,2.45
2023-03-17T11:54:15.907Z,1.33
2023-03-17T11:56:48.815Z,3.63
2023-03-17T11:59:27.238Z,1.55
2023-03-17T12:02:02.146Z,1.45
2023-03-17T12:04:35.200Z,1.85
2023-03-17T12:07:11.878Z,1.60
2023-03-17T12:09:43.146Z,2.17
2023-03-17T12:12:16.029Z,0.98
2023-03-17T12:14:48.613Z,2.92
2023-03-17T12:17:25.122Z,2.60
2023-03-17T12:20:06.679Z,1.67
2023-03-17T12:22:41.377Z,1.52
2023-03-17T12:25:17.986Z,2.60
2023-03-17T12:27:51.075Z,2.05
2023-03-17T12:30:27.885Z,4.25
2023-03-17T12:33:04.674Z,2.80
2023-03-17T12:35:35.190Z,3.08
2023-03-17T12:38:09.986Z,1.98
2023-03-17T12:40:51.258Z,3.28
2023-03-17T12:43:37.152Z,1.83
2023-03-17T12:46:42.423Z,2.35
2023-03-17T12:49:35.778Z,1.98
2023-03-17T12:52:14.342Z,2.17
2023-03-17T12:54:46.723Z,3.08
2023-03-17T12:57:18.784Z,3.53
2023-03-17T12:59:49.453Z,2.13
2023-03-17T13:02:24.649Z,1.85
2023-03-17T13:04:58.020Z,1.50
2023-03-17T13:07:27.913Z,2.28
2023-03-17T13:10:37.121Z,3.35
2023-03-17T13:13:10.056Z,2.58
2023-03-17T13:16:06.606Z,2.22
2023-03-17T13:18:53.300Z,2.05
2023-03-17T13:21:26.252Z,1.35
2023-03-17T13:24:17.961Z,3.63
2023-03-17T13:26:55.558Z,2.55
2023-03-17T13:29:40.881Z,1.95
2023-03-17T13:32:39.675Z,2.42
2023-03-17T13:35:30.678Z,2.20
2023-03-17T13:38:20.137Z,5.32
2023-03-17T13:41:02.897Z,1.60
2023-03-17T13:43:46.246Z,1.83
2023-03-17T13:46:24.351Z,1.73
2023-03-17T13:48:54.682Z,2.97
2023-03-17T13:51:27.139Z,4.70
2023-03-17T13:53:58.993Z,1.57
2023-03-17T13:56:30.336Z,1.42
2023-03-17T13:59:14.122Z,1.45
2023-03-17T14:01:47.854Z,2.67
2023-03-17T14:04:22.477Z,2.10
2023-03-17T14:06:54.541Z,3.05
2023-03-17T14:09:35.180Z,1.77
2023-03-17T14:12:07.735Z,3.58
2023-03-17T14:14:41.982Z,2.75
2023-03-17T14:17:16.438Z,1.67
2023-03-17T14:20:06.283Z,2.25
2023-03-17T14:22:34.194Z,2.55
2023-03-17T14:25:03.813Z,1.65
2023-03-17T14:27:35.220Z,1.90
2023-03-17T14:30:09.717Z,5.45
2023-03-17T14:32:37.679Z,4.15
2023-03-17T14:35:06.976Z,5.60
2023-03-17T14:37:38.435Z,7.13
2023-03-17T14:40:22.412Z,4.38
2023-03-17T14:42:50.911Z,7.68
2023-03-17T14:45:22.696Z,5.82
2023-03-17T14:47:51.869Z,4.28
2023-03-17T14:50:26.143Z,4.43
2023-03-17T14:52:54.291Z,5.63
2023-03-17T14:55:29.788Z,5.40
2023-03-17T14:57:57.912Z,4.85
2023-03-17T15:00:36.260Z,6.97
2023-03-17T15:03:14.833Z,6.53
2023-03-17T15:05:45.308Z,6.57
2023-03-17T15:08:49.524Z,5.10
2023-03-17T15:13:49.754Z,4.15
2023-03-17T15:16:22.618Z,7.25
2023-03-17T15:18:56.043Z,4.00
2023-03-17T15:23:52.649Z,5.93
2023-03-17T15:26:31.600Z,8.15
2023-03-17T15:29:00.815Z,6.30
2023-03-17T15:31:30.073Z,6.97
2023-03-17T15:33:59.055Z,4.88
2023-03-17T15:36:32.843Z,4.75
2023-03-17T15:39:01.682Z,6.85
2023-03-17T15:41:31.295Z,5.65
2023-03-17T15:43:59.207Z,6.85
2023-03-17T15:46:30.999Z,4.30
2023-03-17T15:48:59.419Z,6.00
2023-03-17T15:51:27.737Z,5.72
2023-03-17T15:53:55.927Z,6.38
2023-03-17T15:56:23.854Z,4.47
2023-03-17T15:58:53.326Z,4.80
2023-03-17T16:01:21.850Z,5.13
2023-03-17T16:03:50.353Z,6.00
2023-03-17T16:06:19.758Z,4.28
2023-03-17T16:08:47.804Z,3.78
2023-03-17T16:11:18.586Z,6.05
2023-03-17T16:13:47.470Z,4.90
2023-03-17T16:16:25.182Z,8.68
2023-03-17T16:18:53.473Z,3.25
2023-03-17T16:21:21.669Z,3.53
2023-03-17T16:23:50.261Z,4.07
2023-03-17T16:26:18.159Z,5.97
2023-03-17T16:28:47.605Z,4.38
2023-03-17T16:31:21.648Z,5.05
2023-03-17T16:33:50.227Z,4.20
2023-03-17T16:36:20.355Z,4.03
2023-03-17T16:38:49.056Z,3.85
2023-03-17T16:41:20.429Z,4.93
2023-03-17T16:43:52.545Z,3.80
2023-03-17T16:46:22.929Z,5.82
2023-03-17T16:48:51.775Z,3.60
2023-03-17T16:51:27.614Z,4.95
2023-03-17T16:53:55.526Z,4.60
2023-03-17T16:56:25.756Z,5.35
2023-03-17T16:58:53.776Z,3.17
2023-03-17T17:01:24.393Z,3.78
2023-03-17T17:03:52.493Z,2.75
2023-03-17T17:06:22.289Z,3.28
2023-03-17T17:08:52.632Z,8.25
2023-03-17T17:11:21.381Z,3.38
2023-03-17T17:13:51.699Z,3.78
2023-03-17T17:16:24.412Z,3.15
2023-03-17T17:18:52.511Z,6.15
2023-03-17T17:21:20.536Z,5.82
2023-03-17T17:23:48.526Z,8.35
2023-03-17T17:26:17.784Z,5.03
2023-03-17T17:28:45.796Z,5.63
2023-03-17T17:31:13.825Z,5.65
2023-03-17T17:33:42.051Z,6.50
2023-03-17T17:36:14.902Z,6.65
2023-03-17T17:38:43.542Z,5.22
2023-03-17T17:41:12.889Z,6.68
2023-03-17T17:43:42.401Z,6.65
2023-03-17T17:46:12.736Z,9.52
2023-03-17T17:48:40.928Z,11.80
2023-03-17T17:51:08.889Z,6.20
2023-03-17T17:53:36.889Z,6.65
2023-03-17T17:56:05.676Z,4.93
2023-03-17T17:58:34.020Z,7.30
2023-03-17T18:01:05.483Z,4.57
2023-03-17T18:03:33.966Z,5.75
2023-03-17T18:06:01.996Z,6.40
2023-03-17T18:08:29.918Z,4.55
2023-03-17T18:10:57.865Z,6.03
2023-03-17T18:13:25.870Z,5.20
2023-03-17T18:15:53.945Z,5.38
2023-03-17T18:18:24.034Z,6.85
2023-03-17T18:20:53.085Z,6.93
2023-03-17T18:23:21.579Z,5.28
2023-03-17T18:25:49.684Z,6.78
2023-03-17T18:28:17.929Z,10.10
2023-03-17T18:30:46.046Z,5.70
2023-03-17T18:33:18.295Z,8.43
2023-03-17T18:35:52.154Z,6.00
2023-03-17T18:38:20.595Z,5.25
2023-03-17T18:40:48.626Z,7.00
2023-03-17T18:43:16.607Z,6.85
2023-03-17T18:45:44.632Z,7.28
2023-03-17T18:48:12.603Z,8.52
2023-03-17T18:50:40.816Z,8.68
2023-03-17T18:53:10.127Z,7.15
2023-03-17T18:55:38.031Z,6.85
2023-03-17T18:58:06.316Z,4.50
2023-03-17T19:00:34.413Z,6.22
2023-03-17T19:03:02.313Z,8.32
2023-03-17T19:05:30.355Z,7.13
2023-03-17T19:07:58.425Z,6.57
2023-03-17T19:10:27.751Z,7.80
2023-03-17T19:12:56.133Z,6.43
2023-03-17T19:15:24.273Z,9.55
2023-03-17T19:17:52.471Z,5.93
2023-03-17T19:20:20.727Z,8.02
2023-03-17T19:22:48.727Z,6.90
2023-03-17T19:25:18.065Z,9.57
2023-03-17T19:27:47.393Z,8.52
2023-03-17T19:30:15.899Z,6.97
2023-03-17T19:32:43.880Z,6.35
2023-03-17T19:35:12.171Z,8.95
2023-03-17T19:37:40.574Z,8.50
2023-03-17T19:40:10.568Z,7.70
2023-03-17T19:42:38.572Z,7.97
2023-03-17T19:45:09.289Z,7.75
2023-03-17T19:47:37.291Z,7.30
2023-03-17T19:50:07.104Z,8.32
2023-03-17T19:52:37.129Z,8.40
2023-03-17T19:55:08.132Z,6.95
2023-03-17T19:57:36.848Z,9.15
2023-03-17T20:00:08.835Z,10.98
2023-03-17T20:02:39.239Z,8.68
2023-03-17T20:05:08.378Z,10.20
2023-03-17T20:07:37.186Z,10.77
2023-03-17T20:10:08.214Z,10.20
2023-03-17T20:12:37.966Z,8.95
2023-03-17T20:15:07.756Z,11.27
2023-03-17T20:17:36.162Z,11.15
2023-03-17T20:20:07.244Z,10.85
2023-03-17T20:22:35.401Z,8.85
2023-03-17T20:25:03.358Z,13.50
2023-03-17T20:27:32.123Z,10.55
2023-03-17T20:30:00.119Z,13.75
2023-03-17T20:32:29.892Z,15.20
2023-03-17T20:34:58.200Z,10.13
2023-03-17T20:37:27.746Z,8.95
2023-03-17T20:39:57.422Z,11.60
2023-03-17T20:42:25.796Z,9.77
2023-03-17T20:44:53.684Z,12.00
2023-03-17T20:47:22.047Z,14.10
2023-03-17T20:49:50.643Z,13.35
2023-03-17T20:52:18.657Z,11.85
2023-03-17T20:54:48.649Z,11.18
2023-03-17T20:57:16.613Z,13.35
2023-03-17T20:59:45.156Z,11.52
2023-03-17T21:02:15.798Z,12.05
2023-03-17T21:04:46.704Z,10.93
2023-03-17T21:07:15.545Z,11.13
2023-03-17T21:09:44.200Z,12.05
2023-03-17T21:12:15.929Z,17.33
2023-03-17T21:14:44.108Z,12.27
2023-03-17T21:17:12.731Z,10.70
2023-03-17T21:19:41.743Z,12.52
2023-03-17T21:22:09.649Z,10.88
2023-03-17T21:24:39.780Z,11.35
2023-03-17T21:27:11.279Z,12.43
2023-03-17T21:29:40.983Z,10.65
2023-03-17T21:32:09.433Z,9.55
2023-03-17T21:34:38.282Z,12.05
2023-03-17T21:37:06.564Z,11.60
2023-03-17T21:39:36.131Z,12.38
2023-03-17T21:42:04.171Z,9.48
2023-03-17T21:44:33.060Z,10.50
2023-03-17T21:47:03.358Z,14.55
2023-03-17T21:49:31.573Z,9.93
2023-03-17T21:51:59.493Z,9.82
2023-03-17T21:54:28.381Z,10.52
2023-03-17T21:56:58.549Z,8.95
2023-03-17T21:59:30.799Z,10.75
2023-03-17T22:01:59.643Z,10.38
2023-03-17T22:04:29.207Z,10.05
2023-03-17T22:06:58.796Z,9.80
2023-03-17T22:09:26.796Z,11.43
2023-03-17T22:11:55.042Z,8.68
2023-03-17T22:14:23.353Z,9.10
2023-03-17T22:16:52.182Z,14.73
2023-03-17T22:19:21.337Z,8.65
2023-03-17T22:21:51.647Z,9.65
2023-03-17T22:24:19.621Z,12.32
2023-03-17T22:26:47.569Z,7.28
2023-03-17T22:29:16.086Z,11.57
2023-03-17T22:31:44.162Z,9.07
2023-03-17T22:34:12.141Z,8.07
2023-03-17T22:36:40.142Z,8.88
2023-03-17T22:39:10.787Z,11.05
2023-03-17T22:41:39.410Z,9.88
2023-03-17T22:44:09.153Z,9.82
2023-03-17T22:46:37.379Z,10.27
2023-03-17T22:49:05.988Z,10.25
2023-03-17T22:51:33.949Z,8.73
2023-03-17T22:54:01.933Z,6.80
2023-03-17T22:56:31.309Z,10.27
2023-03-17T22:58:59.328Z,6.72
2023-03-17T23:01:27.660Z,9.20
2023-03-17T23:03:56.209Z,7.05
2023-03-17T23:06:24.658Z,8.70
2023-03-17T23:08:52.781Z,9.18
2023-03-17T23:11:23.205Z,8.80
2023-03-17T23:13:53.720Z,8.68
2023-03-17T23:16:22.536Z,9.48
2023-03-17T23:18:50.893Z,7.07
2023-03-17T23:21:23.142Z,9.10
2023-03-17T23:23:51.501Z,9.38
2023-03-17T23:26:19.425Z,8.35
2023-03-17T23:28:47.680Z,11.00
2023-03-17T23:31:19.320Z,9.63
2023-03-17T23:33:47.838Z,8.63
2023-03-17T23:36:17.005Z,9.82
2023-03-17T23:38:45.751Z,9.85
2023-03-17T23:41:14.570Z,11.20
2023-03-17T23:43:43.957Z,6.28
2023-03-17T23:46:12.995Z,9.80
2023-03-17T23:48:42.877Z,8.98
2023-03-17T23:51:12.300Z,9.55
2023-03-17T23:53:42.920Z,7.95
2023-03-17T23:56:13.198Z,7.97
2023-03-17T23:58:43.209Z,7.05
